Pays
Station

 

Conditions  météo  pour  Miyakojima  -  Japon    Japon

  
29 °C
    
 
 

METAR pour Miyakojima :

ROMY 200100Z 19018KT 9999 FEW010 SCT016 BKN/// 29/26 Q1007

 

Voici le bulletin pour Miyakojima - Japon.
 
Le bulletin a été fait il y a une heure et 3 minutes, à 01:00 UTC .
Le vent soufflait à la vitesse de 9.3 mètres par seconde de Sud (190°).
 
La température était de 29 °C, avec un point de rosée à 26 °C.
La température ressentie était de 35 °C.
 
La pression atmosphérique était de 1007 hPa.
L'humidité relative était de 83.9%.
 
Il y avait 1 à 2/8ème de nébulosité à une hauteur de 305 mètres, 3 à 4/8ème de nébulosité à une hauteur de 488 mètres et 5 à 7/8ème de nébulosité à une hauteur de nil mètres.
 
La visibilité globale était de supérieure à 10 kilomètres.
 

 
 
 

Pays :   A   B   C   D   E   F   G   H   I   J   K   L   M   N   O   P   Q   R   S   T   U   V   W   Y   Z

 

Partenaires :  Info Météo avec Met'info
Météo Marine avec MeteoMarine.net
Infos Site  |  Infos Légales  |  Crédits  |  Confidentialité
Contactez-nous  |  Ajouter aux favoris
© 2013-2018 METAR - Tous droits réservés